sensor_id;sensor_type;location;lat;lon;timestamp;pressure;altitude;pressure_sealevel;temperature;humidity
61678;BME280;47575;52.054;4.334;2022-10-30T00:00:50;101770.47;;;16.71;100.00
61678;BME280;47575;52.054;4.334;2022-10-30T00:03:17;101768.81;;;16.69;100.00
61678;BME280;47575;52.054;4.334;2022-10-30T00:05:45;101774.97;;;16.68;100.00
61678;BME280;47575;52.054;4.334;2022-10-30T00:08:13;101781.19;;;16.67;100.00
61678;BME280;47575;52.054;4.334;2022-10-30T00:10:40;101778.69;;;16.64;100.00
61678;BME280;47575;52.054;4.334;2022-10-30T00:13:07;101783.25;;;16.60;100.00
61678;BME280;47575;52.054;4.334;2022-10-30T00:15:35;101793.63;;;16.65;100.00
61678;BME280;47575;52.054;4.334;2022-10-30T00:18:02;101801.63;;;16.63;100.00
61678;BME280;47575;52.054;4.334;2022-10-30T00:20:29;101803.53;;;16.59;100.00
61678;BME280;47575;52.054;4.334;2022-10-30T00:22:58;101795.75;;;16.56;100.00
61678;BME280;47575;52.054;4.334;2022-10-30T00:25:24;101800.97;;;16.58;100.00
61678;BME280;47575;52.054;4.334;2022-10-30T00:27:52;101804.59;;;16.55;100.00
61678;BME280;47575;52.054;4.334;2022-10-30T00:30:19;101809.06;;;16.53;100.00
61678;BME280;47575;52.054;4.334;2022-10-30T00:32:46;101810.13;;;16.49;100.00
61678;BME280;47575;52.054;4.334;2022-10-30T00:35:13;101807.56;;;16.48;100.00
61678;BME280;47575;52.054;4.334;2022-10-30T00:37:40;101802.38;;;16.45;100.00
61678;BME280;47575;52.054;4.334;2022-10-30T00:40:10;101802.59;;;16.40;100.00
61678;BME280;47575;52.054;4.334;2022-10-30T00:42:39;101804.47;;;16.37;100.00
61678;BME280;47575;52.054;4.334;2022-10-30T00:45:08;101813.41;;;16.34;100.00
61678;BME280;47575;52.054;4.334;2022-10-30T00:47:37;101808.91;;;16.36;100.00
61678;BME280;47575;52.054;4.334;2022-10-30T00:50:07;101811.69;;;16.33;100.00
61678;BME280;47575;52.054;4.334;2022-10-30T00:52:36;101811.78;;;16.30;100.00
61678;BME280;47575;52.054;4.334;2022-10-30T00:55:06;101811.16;;;16.25;100.00
61678;BME280;47575;52.054;4.334;2022-10-30T00:57:36;101812.09;;;16.22;100.00
61678;BME280;47575;52.054;4.334;2022-10-30T01:00:05;101822.88;;;16.18;100.00
61678;BME280;47575;52.054;4.334;2022-10-30T01:02:32;101825.56;;;16.16;100.00
61678;BME280;47575;52.054;4.334;2022-10-30T01:04:59;101827.41;;;16.14;100.00
61678;BME280;47575;52.054;4.334;2022-10-30T01:07:26;101839.75;;;16.14;100.00
61678;BME280;47575;52.054;4.334;2022-10-30T01:09:53;101836.25;;;16.13;100.00
61678;BME280;47575;52.054;4.334;2022-10-30T01:12:20;101846.75;;;16.15;100.00
61678;BME280;47575;52.054;4.334;2022-10-30T01:14:51;101852.09;;;16.13;100.00
61678;BME280;47575;52.054;4.334;2022-10-30T01:20:06;101858.38;;;16.11;100.00
61678;BME280;47575;52.054;4.334;2022-10-30T01:22:39;101867.22;;;16.10;100.00
61678;BME280;47575;52.054;4.334;2022-10-30T01:25:14;101865.47;;;16.09;100.00
61678;BME280;47575;52.054;4.334;2022-10-30T01:27:56;101873.41;;;16.09;100.00
61678;BME280;47575;52.054;4.334;2022-10-30T01:30:29;101873.41;;;16.09;100.00
61678;BME280;47575;52.054;4.334;2022-10-30T01:33:05;101882.22;;;16.09;100.00
61678;BME280;47575;52.054;4.334;2022-10-30T01:35:36;101886.66;;;16.07;100.00
61678;BME280;47575;52.054;4.334;2022-10-30T01:38:06;101888.59;;;16.03;100.00
61678;BME280;47575;52.054;4.334;2022-10-30T01:40:36;101883.47;;;15.99;100.00
61678;BME280;47575;52.054;4.334;2022-10-30T01:43:03;101889.59;;;15.99;100.00
61678;BME280;47575;52.054;4.334;2022-10-30T01:45:52;101887.03;;;15.98;100.00
61678;BME280;47575;52.054;4.334;2022-10-30T01:48:26;101894.22;;;15.94;100.00
61678;BME280;47575;52.054;4.334;2022-10-30T01:50:59;101895.25;;;15.90;100.00
61678;BME280;47575;52.054;4.334;2022-10-30T01:53:34;101895.31;;;15.89;100.00
61678;BME280;47575;52.054;4.334;2022-10-30T01:56:08;101898.03;;;15.86;100.00
61678;BME280;47575;52.054;4.334;2022-10-30T01:58:40;101894.72;;;15.81;100.00
61678;BME280;47575;52.054;4.334;2022-10-30T02:01:11;101893.97;;;15.77;100.00
61678;BME280;47575;52.054;4.334;2022-10-30T02:03:38;101903.75;;;15.75;100.00
61678;BME280;47575;52.054;4.334;2022-10-30T02:06:06;101902.09;;;15.72;100.00
61678;BME280;47575;52.054;4.334;2022-10-30T02:08:33;101895.13;;;15.70;100.00
61678;BME280;47575;52.054;4.334;2022-10-30T02:11:00;101900.59;;;15.65;100.00
61678;BME280;47575;52.054;4.334;2022-10-30T02:13:35;101905.09;;;15.62;100.00
61678;BME280;47575;52.054;4.334;2022-10-30T02:16:02;101908.69;;;15.59;100.00
61678;BME280;47575;52.054;4.334;2022-10-30T02:18:30;101919.25;;;15.59;100.00
61678;BME280;47575;52.054;4.334;2022-10-30T02:21:01;101921.09;;;15.56;100.00
61678;BME280;47575;52.054;4.334;2022-10-30T02:23:27;101926.50;;;15.52;100.00
61678;BME280;47575;52.054;4.334;2022-10-30T02:25:54;101930.94;;;15.52;100.00
61678;BME280;47575;52.054;4.334;2022-10-30T02:28:21;101931.03;;;15.49;100.00
61678;BME280;47575;52.054;4.334;2022-10-30T02:30:48;101938.84;;;15.52;100.00
61678;BME280;47575;52.054;4.334;2022-10-30T02:33:16;101941.47;;;15.52;100.00
61678;BME280;47575;52.054;4.334;2022-10-30T02:35:43;101938.06;;;15.48;100.00
61678;BME280;47575;52.054;4.334;2022-10-30T02:38:11;101943.34;;;15.48;100.00
61678;BME280;47575;52.054;4.334;2022-10-30T02:40:38;101954.75;;;15.49;100.00
61678;BME280;47575;52.054;4.334;2022-10-30T02:43:06;101953.16;;;15.45;100.00
61678;BME280;47575;52.054;4.334;2022-10-30T02:45:33;101962.00;;;15.44;100.00
61678;BME280;47575;52.054;4.334;2022-10-30T02:48:01;101961.13;;;15.43;100.00
61678;BME280;47575;52.054;4.334;2022-10-30T02:50:28;101958.59;;;15.40;100.00
61678;BME280;47575;52.054;4.334;2022-10-30T02:52:57;101958.66;;;15.39;100.00
61678;BME280;47575;52.054;4.334;2022-10-30T02:55:25;101957.72;;;15.40;100.00
61678;BME280;47575;52.054;4.334;2022-10-30T02:57:52;101969.09;;;15.42;100.00
61678;BME280;47575;52.054;4.334;2022-10-30T03:00:19;101970.88;;;15.41;100.00
61678;BME280;47575;52.054;4.334;2022-10-30T03:02:47;101964.00;;;15.37;100.00
61678;BME280;47575;52.054;4.334;2022-10-30T03:05:14;101954.56;;;15.30;100.00
61678;BME280;47575;52.054;4.334;2022-10-30T03:07:41;101953.84;;;15.25;100.00
61678;BME280;47575;52.054;4.334;2022-10-30T03:10:08;101958.56;;;15.15;100.00
61678;BME280;47575;52.054;4.334;2022-10-30T03:12:36;101960.41;;;15.13;100.00
61678;BME280;47575;52.054;4.334;2022-10-30T03:15:03;101960.53;;;15.09;100.00
61678;BME280;47575;52.054;4.334;2022-10-30T03:17:30;101958.09;;;15.03;100.00
61678;BME280;47575;52.054;4.334;2022-10-30T03:19:57;101963.56;;;14.96;100.00
61678;BME280;47575;52.054;4.334;2022-10-30T03:22:24;101955.03;;;14.90;100.00
61678;BME280;47575;52.054;4.334;2022-10-30T03:24:52;101945.47;;;14.86;100.00
61678;BME280;47575;52.054;4.334;2022-10-30T03:27:19;101958.78;;;14.83;100.00
61678;BME280;47575;52.054;4.334;2022-10-30T03:29:50;101961.44;;;14.81;100.00
61678;BME280;47575;52.054;4.334;2022-10-30T03:32:17;101951.91;;;14.77;100.00
61678;BME280;47575;52.054;4.334;2022-10-30T03:34:50;101959.75;;;14.79;100.00
61678;BME280;47575;52.054;4.334;2022-10-30T03:37:18;101961.53;;;14.78;100.00
61678;BME280;47575;52.054;4.334;2022-10-30T03:39:45;101967.97;;;14.70;100.00
61678;BME280;47575;52.054;4.334;2022-10-30T03:42:12;101971.66;;;14.64;100.00
61678;BME280;47575;52.054;4.334;2022-10-30T03:44:39;101973.53;;;14.60;100.00
61678;BME280;47575;52.054;4.334;2022-10-30T03:47:08;101972.69;;;14.58;100.00
61678;BME280;47575;52.054;4.334;2022-10-30T03:49:40;101970.06;;;14.58;100.00
61678;BME280;47575;52.054;4.334;2022-10-30T03:52:12;101969.25;;;14.56;100.00
61678;BME280;47575;52.054;4.334;2022-10-30T03:54:39;101977.16;;;14.56;100.00
61678;BME280;47575;52.054;4.334;2022-10-30T03:57:08;101974.41;;;14.59;100.00
61678;BME280;47575;52.054;4.334;2022-10-30T03:59:55;101979.69;;;14.59;100.00
61678;BME280;47575;52.054;4.334;2022-10-30T04:02:44;101977.97;;;14.58;100.00
61678;BME280;47575;52.054;4.334;2022-10-30T04:05:12;101980.59;;;14.58;100.00
61678;BME280;47575;52.054;4.334;2022-10-30T04:07:40;101985.75;;;14.63;100.00
61678;BME280;47575;52.054;4.334;2022-10-30T04:10:08;101977.78;;;14.64;100.00
61678;BME280;47575;52.054;4.334;2022-10-30T04:12:35;101976.06;;;14.63;100.00
61678;BME280;47575;52.054;4.334;2022-10-30T04:15:02;101976.97;;;14.62;100.00
61678;BME280;47575;52.054;4.334;2022-10-30T04:17:30;101975.19;;;14.63;100.00
61678;BME280;47575;52.054;4.334;2022-10-30T04:20:00;101964.72;;;14.61;100.00
61678;BME280;47575;52.054;4.334;2022-10-30T04:22:27;101972.63;;;14.60;100.00
61678;BME280;47575;52.054;4.334;2022-10-30T04:24:54;101968.22;;;14.62;100.00
61678;BME280;47575;52.054;4.334;2022-10-30T04:27:23;101963.00;;;14.59;100.00
61678;BME280;47575;52.054;4.334;2022-10-30T04:29:50;101966.50;;;14.59;100.00
61678;BME280;47575;52.054;4.334;2022-10-30T04:32:17;101960.38;;;14.59;100.00
61678;BME280;47575;52.054;4.334;2022-10-30T04:34:45;101969.59;;;14.74;100.00
61678;BME280;47575;52.054;4.334;2022-10-30T04:37:14;101962.53;;;14.74;100.00
61678;BME280;47575;52.054;4.334;2022-10-30T04:39:42;101960.06;;;14.70;100.00
61678;BME280;47575;52.054;4.334;2022-10-30T04:42:16;101955.72;;;14.68;100.00
61678;BME280;47575;52.054;4.334;2022-10-30T04:44:43;101960.19;;;14.65;100.00
61678;BME280;47575;52.054;4.334;2022-10-30T04:47:10;101974.34;;;14.62;100.00
61678;BME280;47575;52.054;4.334;2022-10-30T04:49:37;101978.94;;;14.56;100.00
61678;BME280;47575;52.054;4.334;2022-10-30T04:52:04;101976.41;;;14.51;100.00
61678;BME280;47575;52.054;4.334;2022-10-30T04:54:32;101978.34;;;14.46;100.00
61678;BME280;47575;52.054;4.334;2022-10-30T04:57:01;101976.78;;;14.39;100.00
61678;BME280;47575;52.054;4.334;2022-10-30T04:59:28;101973.41;;;14.34;100.00
61678;BME280;47575;52.054;4.334;2022-10-30T05:01:55;101980.50;;;14.32;100.00
61678;BME280;47575;52.054;4.334;2022-10-30T05:04:22;101974.50;;;14.27;100.00
61678;BME280;47575;52.054;4.334;2022-10-30T05:06:49;101974.59;;;14.24;100.00
61678;BME280;47575;52.054;4.334;2022-10-30T05:09:17;101970.38;;;14.18;100.00
61678;BME280;47575;52.054;4.334;2022-10-30T05:11:45;101966.94;;;14.16;100.00
61678;BME280;47575;52.054;4.334;2022-10-30T05:14:12;101970.41;;;14.17;100.00
61678;BME280;47575;52.054;4.334;2022-10-30T05:16:41;101980.16;;;14.13;100.00
61678;BME280;47575;52.054;4.334;2022-10-30T05:19:08;101971.63;;;14.05;100.00
61678;BME280;47575;52.054;4.334;2022-10-30T05:21:35;101971.66;;;14.03;100.00
61678;BME280;47575;52.054;4.334;2022-10-30T05:24:03;101970.00;;;14.01;100.00
61678;BME280;47575;52.054;4.334;2022-10-30T05:26:38;101973.50;;;14.01;100.00
61678;BME280;47575;52.054;4.334;2022-10-30T05:29:06;101966.56;;;13.97;100.00
61678;BME280;47575;52.054;4.334;2022-10-30T05:31:34;101977.97;;;13.98;100.00
61678;BME280;47575;52.054;4.334;2022-10-30T05:34:29;101978.31;;;13.85;100.00
61678;BME280;47575;52.054;4.334;2022-10-30T05:36:56;101982.84;;;13.80;100.00
61678;BME280;47575;52.054;4.334;2022-10-30T05:39:23;101999.56;;;13.78;100.00
61678;BME280;47575;52.054;4.334;2022-10-30T05:41:51;101996.16;;;13.74;100.00
61678;BME280;47575;52.054;4.334;2022-10-30T05:44:20;101993.56;;;13.73;100.00
61678;BME280;47575;52.054;4.334;2022-10-30T05:46:47;101990.03;;;13.74;100.00
61678;BME280;47575;52.054;4.334;2022-10-30T05:49:23;101989.56;;;13.91;100.00
61678;BME280;47575;52.054;4.334;2022-10-30T05:51:50;101997.63;;;13.84;100.00
61678;BME280;47575;52.054;4.334;2022-10-30T05:54:17;101990.63;;;13.83;100.00
61678;BME280;47575;52.054;4.334;2022-10-30T05:56:57;101993.28;;;13.83;100.00
61678;BME280;47575;52.054;4.334;2022-10-30T05:59:25;101989.94;;;13.78;100.00
61678;BME280;47575;52.054;4.334;2022-10-30T06:01:53;101984.78;;;13.74;100.00
61678;BME280;47575;52.054;4.334;2022-10-30T06:04:22;101986.59;;;13.70;100.00
61678;BME280;47575;52.054;4.334;2022-10-30T06:06:49;101994.50;;;13.70;100.00
61678;BME280;47575;52.054;4.334;2022-10-30T06:09:16;101996.47;;;13.62;100.00
61678;BME280;47575;52.054;4.334;2022-10-30T06:12:12;101995.56;;;13.63;100.00
61678;BME280;47575;52.054;4.334;2022-10-30T06:14:59;102002.59;;;13.64;100.00
61678;BME280;47575;52.054;4.334;2022-10-30T06:17:31;102014.84;;;13.65;100.00
61678;BME280;47575;52.054;4.334;2022-10-30T06:20:20;102006.19;;;13.60;100.00
61678;BME280;47575;52.054;4.334;2022-10-30T06:23:06;102013.16;;;13.61;100.00
61678;BME280;47575;52.054;4.334;2022-10-30T06:25:50;102014.13;;;13.58;100.00
61678;BME280;47575;52.054;4.334;2022-10-30T06:28:21;102010.78;;;13.52;100.00
61678;BME280;47575;52.054;4.334;2022-10-30T06:30:53;102007.41;;;13.47;100.00
61678;BME280;47575;52.054;4.334;2022-10-30T06:33:20;102009.16;;;13.46;100.00
61678;BME280;47575;52.054;4.334;2022-10-30T06:35:50;102005.56;;;13.50;100.00
61678;BME280;47575;52.054;4.334;2022-10-30T06:38:18;102003.84;;;13.49;100.00
61678;BME280;47575;52.054;4.334;2022-10-30T06:40:46;102007.19;;;13.54;100.00
61678;BME280;47575;52.054;4.334;2022-10-30T06:43:24;102005.31;;;13.60;100.00
61678;BME280;47575;52.054;4.334;2022-10-30T06:46:03;102001.72;;;13.64;100.00
61678;BME280;47575;52.054;4.334;2022-10-30T06:48:31;102007.72;;;13.69;100.00
61678;BME280;47575;52.054;4.334;2022-10-30T06:50:59;102004.97;;;13.73;100.00
61678;BME280;47575;52.054;4.334;2022-10-30T06:53:29;102001.22;;;13.82;100.00
61678;BME280;47575;52.054;4.334;2022-10-30T06:56:16;101994.13;;;13.85;100.00
61678;BME280;47575;52.054;4.334;2022-10-30T06:59:02;101995.66;;;13.93;100.00
61678;BME280;47575;52.054;4.334;2022-10-30T07:01:36;102000.56;;;14.05;100.00
61678;BME280;47575;52.054;4.334;2022-10-30T07:04:16;102010.91;;;14.12;100.00
61678;BME280;47575;52.054;4.334;2022-10-30T07:06:43;102017.94;;;14.12;100.00
61678;BME280;47575;52.054;4.334;2022-10-30T07:09:10;102021.47;;;14.11;100.00
61678;BME280;47575;52.054;4.334;2022-10-30T07:11:38;102030.06;;;14.18;100.00
61678;BME280;47575;52.054;4.334;2022-10-30T07:14:19;102024.72;;;14.21;100.00
61678;BME280;47575;52.054;4.334;2022-10-30T07:17:08;102018.09;;;14.37;100.00
61678;BME280;47575;52.054;4.334;2022-10-30T07:19:36;102021.47;;;14.42;100.00
61678;BME280;47575;52.054;4.334;2022-10-30T07:22:04;102021.50;;;14.40;100.00
61678;BME280;47575;52.054;4.334;2022-10-30T07:24:32;102017.91;;;14.43;100.00
61678;BME280;47575;52.054;4.334;2022-10-30T07:27:23;102019.84;;;14.38;100.00
61678;BME280;47575;52.054;4.334;2022-10-30T07:30:00;102025.63;;;14.51;100.00
61678;BME280;47575;52.054;4.334;2022-10-30T07:32:35;102037.00;;;14.53;100.00
61678;BME280;47575;52.054;4.334;2022-10-30T07:35:13;102034.22;;;14.57;100.00
61678;BME280;47575;52.054;4.334;2022-10-30T07:38:03;102043.66;;;14.64;100.00
61678;BME280;47575;52.054;4.334;2022-10-30T07:40:51;102031.97;;;14.73;100.00
61678;BME280;47575;52.054;4.334;2022-10-30T07:43:36;102036.19;;;14.79;100.00
61678;BME280;47575;52.054;4.334;2022-10-30T07:46:23;102036.50;;;14.98;100.00
61678;BME280;47575;52.054;4.334;2022-10-30T07:49:10;102040.44;;;15.12;100.00
61678;BME280;47575;52.054;4.334;2022-10-30T07:51:41;102043.72;;;15.19;100.00
61678;BME280;47575;52.054;4.334;2022-10-30T07:54:09;102039.16;;;15.24;100.00
61678;BME280;47575;52.054;4.334;2022-10-30T07:56:36;102047.13;;;15.49;100.00
61678;BME280;47575;52.054;4.334;2022-10-30T07:59:22;102052.63;;;15.69;100.00
61678;BME280;47575;52.054;4.334;2022-10-30T08:01:58;102060.53;;;15.96;100.00
61678;BME280;47575;52.054;4.334;2022-10-30T08:04:47;102068.28;;;16.25;100.00
61678;BME280;47575;52.054;4.334;2022-10-30T08:07:50;102081.13;;;16.83;100.00
61678;BME280;47575;52.054;4.334;2022-10-30T08:10:17;102070.38;;;17.09;100.00
61678;BME280;47575;52.054;4.334;2022-10-30T08:12:44;102066.59;;;17.16;100.00
61678;BME280;47575;52.054;4.334;2022-10-30T08:15:12;102060.34;;;17.17;100.00
61678;BME280;47575;52.054;4.334;2022-10-30T08:17:40;102049.91;;;17.36;100.00
61678;BME280;47575;52.054;4.334;2022-10-30T08:20:09;102041.03;;;17.58;100.00
61678;BME280;47575;52.054;4.334;2022-10-30T08:22:42;102037.22;;;17.44;100.00
61678;BME280;47575;52.054;4.334;2022-10-30T08:25:10;102020.91;;;17.33;100.00
61678;BME280;47575;52.054;4.334;2022-10-30T08:27:37;102001.44;;;17.34;100.00
61678;BME280;47575;52.054;4.334;2022-10-30T08:30:04;101983.34;;;17.46;100.00
61678;BME280;47575;52.054;4.334;2022-10-30T08:32:31;101974.31;;;17.50;100.00
61678;BME280;47575;52.054;4.334;2022-10-30T08:35:19;101950.22;;;17.35;100.00
61678;BME280;47575;52.054;4.334;2022-10-30T08:37:45;101942.84;;;17.43;100.00
61678;BME280;47575;52.054;4.334;2022-10-30T08:40:13;101942.50;;;17.51;100.00
61678;BME280;47575;52.054;4.334;2022-10-30T08:42:49;101953.25;;;17.87;100.00
61678;BME280;47575;52.054;4.334;2022-10-30T08:45:16;101952.19;;;18.12;100.00
61678;BME280;47575;52.054;4.334;2022-10-30T08:48:08;101937.47;;;18.23;100.00
61678;BME280;47575;52.054;4.334;2022-10-30T08:50:39;101937.84;;;18.35;100.00
61678;BME280;47575;52.054;4.334;2022-10-30T08:53:07;101934.75;;;18.63;100.00
61678;BME280;47575;52.054;4.334;2022-10-30T08:55:34;101932.03;;;19.00;100.00
61678;BME280;47575;52.054;4.334;2022-10-30T08:58:03;101933.34;;;19.26;100.00
61678;BME280;47575;52.054;4.334;2022-10-30T09:00:30;101922.81;;;19.25;100.00
61678;BME280;47575;52.054;4.334;2022-10-30T09:03:22;101913.19;;;19.40;100.00
61678;BME280;47575;52.054;4.334;2022-10-30T09:05:59;101891.81;;;19.60;100.00
61678;BME280;47575;52.054;4.334;2022-10-30T09:08:49;101881.44;;;19.71;100.00
61678;BME280;47575;52.054;4.334;2022-10-30T09:11:27;101886.13;;;20.15;100.00
61678;BME280;47575;52.054;4.334;2022-10-30T09:13:56;101882.88;;;20.26;100.00
61678;BME280;47575;52.054;4.334;2022-10-30T09:16:24;101878.84;;;20.66;100.00
61678;BME280;47575;52.054;4.334;2022-10-30T09:18:51;101872.03;;;20.76;100.00
61678;BME280;47575;52.054;4.334;2022-10-30T09:21:20;101861.47;;;21.05;100.00
61678;BME280;47575;52.054;4.334;2022-10-30T09:23:50;101855.47;;;21.01;100.00
61678;BME280;47575;52.054;4.334;2022-10-30T09:26:49;101855.16;;;21.50;100.00
61678;BME280;47575;52.054;4.334;2022-10-30T09:29:23;101846.53;;;21.61;100.00
61678;BME280;47575;52.054;4.334;2022-10-30T09:32:04;101837.09;;;21.55;100.00
61678;BME280;47575;52.054;4.334;2022-10-30T09:34:37;101824.63;;;21.55;100.00
61678;BME280;47575;52.054;4.334;2022-10-30T09:37:15;101827.78;;;21.48;100.00
61678;BME280;47575;52.054;4.334;2022-10-30T09:39:45;101821.47;;;21.77;100.00
61678;BME280;47575;52.054;4.334;2022-10-30T09:42:26;101824.44;;;22.28;100.00
61678;BME280;47575;52.054;4.334;2022-10-30T09:45:05;101814.19;;;21.94;100.00
61678;BME280;47575;52.054;4.334;2022-10-30T09:47:37;101819.31;;;22.38;100.00
61678;BME280;47575;52.054;4.334;2022-10-30T09:50:16;101809.06;;;22.32;100.00
61678;BME280;47575;52.054;4.334;2022-10-30T09:52:52;101810.25;;;22.41;100.00
61678;BME280;47575;52.054;4.334;2022-10-30T09:55:24;101798.59;;;22.69;100.00
61678;BME280;47575;52.054;4.334;2022-10-30T09:57:57;101798.72;;;22.80;100.00
61678;BME280;47575;52.054;4.334;2022-10-30T10:00:29;101789.09;;;22.25;100.00
61678;BME280;47575;52.054;4.334;2022-10-30T10:03:17;101793.78;;;22.34;100.00
61678;BME280;47575;52.054;4.334;2022-10-30T10:06:10;101796.09;;;22.53;100.00
61678;BME280;47575;52.054;4.334;2022-10-30T10:09:06;101782.47;;;22.83;100.00
61678;BME280;47575;52.054;4.334;2022-10-30T10:12:06;101782.28;;;23.24;100.00
61678;BME280;47575;52.054;4.334;2022-10-30T10:14:36;101783.38;;;23.34;100.00
61678;BME280;47575;52.054;4.334;2022-10-30T10:17:04;101785.69;;;23.39;100.00
61678;BME280;47575;52.054;4.334;2022-10-30T10:19:37;101785.88;;;23.74;100.00
61678;BME280;47575;52.054;4.334;2022-10-30T10:22:05;101780.22;;;23.53;100.00
61678;BME280;47575;52.054;4.334;2022-10-30T10:24:41;101772.47;;;22.99;100.00
61678;BME280;47575;52.054;4.334;2022-10-30T10:27:14;101772.03;;;23.31;100.00
61678;BME280;47575;52.054;4.334;2022-10-30T10:29:48;101768.06;;;23.36;100.00
61678;BME280;47575;52.054;4.334;2022-10-30T10:32:26;101758.59;;;23.19;100.00
61678;BME280;47575;52.054;4.334;2022-10-30T10:35:06;101751.69;;;22.64;100.00
61678;BME280;47575;52.054;4.334;2022-10-30T10:37:43;101766.19;;;23.13;100.00
61678;BME280;47575;52.054;4.334;2022-10-30T10:40:17;101752.94;;;22.99;100.00
61678;BME280;47575;52.054;4.334;2022-10-30T10:42:51;101752.25;;;22.82;100.00
61678;BME280;47575;52.054;4.334;2022-10-30T10:45:23;101747.16;;;23.05;100.00
61678;BME280;47575;52.054;4.334;2022-10-30T10:50:45;101752.19;;;22.31;100.00
61678;BME280;47575;52.054;4.334;2022-10-30T10:53:14;101742.78;;;22.26;100.00
61678;BME280;47575;52.054;4.334;2022-10-30T10:55:46;101739.41;;;22.49;100.00
61678;BME280;47575;52.054;4.334;2022-10-30T10:58:15;101734.28;;;22.06;100.00
61678;BME280;47575;52.054;4.334;2022-10-30T11:00:47;101736.22;;;22.44;100.00
61678;BME280;47575;52.054;4.334;2022-10-30T11:03:16;101738.91;;;22.70;100.00
61678;BME280;47575;52.054;4.334;2022-10-30T11:05:47;101732.66;;;22.96;100.00
61678;BME280;47575;52.054;4.334;2022-10-30T11:08:18;101734.00;;;23.02;100.00
61678;BME280;47575;52.054;4.334;2022-10-30T11:10:47;101735.63;;;23.17;100.00
61678;BME280;47575;52.054;4.334;2022-10-30T11:13:15;101718.09;;;23.26;100.00
61678;BME280;47575;52.054;4.334;2022-10-30T11:15:46;101723.78;;;22.96;100.00
61678;BME280;47575;52.054;4.334;2022-10-30T11:18:16;101718.53;;;23.07;100.00
61678;BME280;47575;52.054;4.334;2022-10-30T11:20:43;101709.34;;;22.85;100.00
61678;BME280;47575;52.054;4.334;2022-10-30T11:23:28;101708.41;;;22.99;100.00
61678;BME280;47575;52.054;4.334;2022-10-30T11:25:57;101705.41;;;22.65;100.00
61678;BME280;47575;52.054;4.334;2022-10-30T11:28:32;101708.34;;;22.48;100.00
61678;BME280;47575;52.054;4.334;2022-10-30T11:31:15;101710.50;;;22.43;100.00
61678;BME280;47575;52.054;4.334;2022-10-30T11:33:42;101705.47;;;22.64;100.00
61678;BME280;47575;52.054;4.334;2022-10-30T11:36:09;101699.59;;;22.46;100.00
61678;BME280;47575;52.054;4.334;2022-10-30T11:38:36;101700.06;;;22.65;100.00
61678;BME280;47575;52.054;4.334;2022-10-30T11:41:05;101694.28;;;22.59;100.00
61678;BME280;47575;52.054;4.334;2022-10-30T11:43:35;101690.22;;;22.66;100.00
61678;BME280;47575;52.054;4.334;2022-10-30T11:46:03;101692.13;;;22.64;100.00
61678;BME280;47575;52.054;4.334;2022-10-30T11:48:35;101702.28;;;22.72;100.00
61678;BME280;47575;52.054;4.334;2022-10-30T11:51:03;101698.97;;;22.43;100.00
61678;BME280;47575;52.054;4.334;2022-10-30T11:53:30;101699.28;;;21.98;100.00
61678;BME280;47575;52.054;4.334;2022-10-30T11:55:59;101712.91;;;22.33;100.00
61678;BME280;47575;52.054;4.334;2022-10-30T11:58:31;101717.50;;;22.31;100.00
61678;BME280;47575;52.054;4.334;2022-10-30T12:01:00;101722.56;;;22.09;100.00
61678;BME280;47575;52.054;4.334;2022-10-30T12:03:29;101712.88;;;22.08;100.00
61678;BME280;47575;52.054;4.334;2022-10-30T12:06:06;101720.88;;;22.08;100.00
61678;BME280;47575;52.054;4.334;2022-10-30T12:08:33;101725.06;;;21.71;100.00
61678;BME280;47575;52.054;4.334;2022-10-30T12:11:00;101726.47;;;21.35;100.00
61678;BME280;47575;52.054;4.334;2022-10-30T12:13:37;101726.91;;;21.13;100.00
61678;BME280;47575;52.054;4.334;2022-10-30T12:16:09;101737.00;;;21.22;100.00
61678;BME280;47575;52.054;4.334;2022-10-30T12:18:38;101734.06;;;21.13;100.00
61678;BME280;47575;52.054;4.334;2022-10-30T12:21:05;101740.25;;;21.27;100.00
61678;BME280;47575;52.054;4.334;2022-10-30T12:23:33;101744.53;;;21.30;100.00
61678;BME280;47575;52.054;4.334;2022-10-30T12:26:01;101747.63;;;21.22;100.00
61678;BME280;47575;52.054;4.334;2022-10-30T12:28:34;101733.66;;;20.90;100.00
61678;BME280;47575;52.054;4.334;2022-10-30T12:31:03;101737.28;;;20.89;100.00
61678;BME280;47575;52.054;4.334;2022-10-30T12:33:36;101729.09;;;21.07;100.00
61678;BME280;47575;52.054;4.334;2022-10-30T12:36:06;101715.03;;;20.90;100.00
61678;BME280;47575;52.054;4.334;2022-10-30T12:38:35;101712.66;;;20.71;100.00
61678;BME280;47575;52.054;4.334;2022-10-30T12:41:06;101716.72;;;20.77;100.00
61678;BME280;47575;52.054;4.334;2022-10-30T12:43:38;101715.78;;;20.92;100.00
61678;BME280;47575;52.054;4.334;2022-10-30T12:46:24;101715.31;;;21.00;100.00
61678;BME280;47575;52.054;4.334;2022-10-30T12:48:54;101720.84;;;21.11;100.00
61678;BME280;47575;52.054;4.334;2022-10-30T12:51:26;101718.75;;;21.02;100.00
61678;BME280;47575;52.054;4.334;2022-10-30T12:53:56;101724.47;;;21.10;100.00
61678;BME280;47575;52.054;4.334;2022-10-30T12:56:27;101721.59;;;20.99;100.00
61678;BME280;47575;52.054;4.334;2022-10-30T12:58:56;101712.69;;;20.86;100.00
61678;BME280;47575;52.054;4.334;2022-10-30T13:01:30;101710.66;;;20.89;100.00
61678;BME280;47575;52.054;4.334;2022-10-30T13:04:04;101707.06;;;21.05;100.00
61678;BME280;47575;52.054;4.334;2022-10-30T13:06:33;101700.78;;;21.06;100.00
61678;BME280;47575;52.054;4.334;2022-10-30T13:09:03;101704.13;;;21.09;100.00